sensor_id;sensor_type;location;lat;lon;timestamp;pressure;altitude;pressure_sealevel;temperature;humidity
80124;BME280;69433;48.642;9.142;2023-05-10T00:00:34;96360.84;;;23.90;42.73
80124;BME280;69433;48.642;9.142;2023-05-10T00:03:00;96362.34;;;23.91;42.64
80124;BME280;69433;48.642;9.142;2023-05-10T00:05:25;96357.41;;;23.89;42.74
80124;BME280;69433;48.642;9.142;2023-05-10T00:07:50;96355.47;;;23.90;42.39
80124;BME280;69433;48.642;9.142;2023-05-10T00:10:15;96370.41;;;23.91;42.51
80124;BME280;69433;48.642;9.142;2023-05-10T00:12:41;96363.50;;;23.90;42.35
80124;BME280;69433;48.642;9.142;2023-05-10T00:15:07;96360.06;;;23.89;42.67
80124;BME280;69433;48.642;9.142;2023-05-10T00:17:33;96365.88;;;23.88;42.66
80124;BME280;69433;48.642;9.142;2023-05-10T00:19:58;96364.69;;;23.89;42.59
80124;BME280;69433;48.642;9.142;2023-05-10T00:22:23;96367.38;;;23.89;42.82
80124;BME280;69433;48.642;9.142;2023-05-10T00:24:51;96364.06;;;23.97;42.29
80124;BME280;69433;48.642;9.142;2023-05-10T00:27:16;96363.84;;;24.04;42.32
80124;BME280;69433;48.642;9.142;2023-05-10T00:29:41;96356.03;;;24.10;41.98
80124;BME280;69433;48.642;9.142;2023-05-10T00:32:06;96365.06;;;24.16;42.00
80124;BME280;69433;48.642;9.142;2023-05-10T00:34:33;96362.28;;;24.20;41.74
80124;BME280;69433;48.642;9.142;2023-05-10T00:36:58;96364.88;;;24.23;41.90
80124;BME280;69433;48.642;9.142;2023-05-10T00:39:29;96366.72;;;24.26;41.71
80124;BME280;69433;48.642;9.142;2023-05-10T00:41:54;96363.59;;;24.28;41.64
80124;BME280;69433;48.642;9.142;2023-05-10T00:44:19;96368.53;;;24.29;41.58
80124;BME280;69433;48.642;9.142;2023-05-10T00:46:45;96370.81;;;24.31;41.40
80124;BME280;69433;48.642;9.142;2023-05-10T00:49:10;96381.09;;;24.32;41.58
80124;BME280;69433;48.642;9.142;2023-05-10T00:51:36;96380.69;;;24.34;41.39
80124;BME280;69433;48.642;9.142;2023-05-10T00:54:02;96377.56;;;24.35;41.24
80124;BME280;69433;48.642;9.142;2023-05-10T00:56:28;96382.94;;;24.35;41.51
80124;BME280;69433;48.642;9.142;2023-05-10T00:58:56;96381.34;;;24.38;41.53
80124;BME280;69433;48.642;9.142;2023-05-10T01:01:22;96384.78;;;24.38;41.35
80124;BME280;69433;48.642;9.142;2023-05-10T01:03:48;96384.78;;;24.38;41.54
80124;BME280;69433;48.642;9.142;2023-05-10T01:06:13;96386.59;;;24.41;41.16
80124;BME280;69433;48.642;9.142;2023-05-10T01:08:39;96393.47;;;24.42;41.48
80124;BME280;69433;48.642;9.142;2023-05-10T01:11:04;96389.28;;;24.41;41.21
80124;BME280;69433;48.642;9.142;2023-05-10T01:13:34;96388.53;;;24.41;41.34
80124;BME280;69433;48.642;9.142;2023-05-10T01:16:01;96385.09;;;24.40;41.12
80124;BME280;69433;48.642;9.142;2023-05-10T01:18:30;96389.72;;;24.40;41.18
80124;BME280;69433;48.642;9.142;2023-05-10T01:21:07;96394.34;;;24.39;41.01
80124;BME280;69433;48.642;9.142;2023-05-10T01:23:48;96402.41;;;24.39;41.11
80124;BME280;69433;48.642;9.142;2023-05-10T01:37:25;96418.09;;;24.41;41.12
80124;BME280;69433;48.642;9.142;2023-05-10T01:40:19;96418.09;;;24.41;41.04
80124;BME280;69433;48.642;9.142;2023-05-10T01:42:53;96418.81;;;24.41;41.13
80124;BME280;69433;48.642;9.142;2023-05-10T01:45:26;96428.41;;;24.42;41.31
80124;BME280;69433;48.642;9.142;2023-05-10T01:48:07;96423.03;;;24.42;41.28
80124;BME280;69433;48.642;9.142;2023-05-10T01:50:35;96427.22;;;24.44;40.98
80124;BME280;69433;48.642;9.142;2023-05-10T01:53:01;96427.22;;;24.44;41.15
80124;BME280;69433;48.642;9.142;2023-05-10T01:55:35;96429.47;;;24.45;40.91
80124;BME280;69433;48.642;9.142;2023-05-10T01:58:13;96434.09;;;24.45;41.22
80124;BME280;69433;48.642;9.142;2023-05-10T02:00:43;96432.16;;;24.45;40.96
80124;BME280;69433;48.642;9.142;2023-05-10T02:03:10;96435.59;;;24.46;41.00
80124;BME280;69433;48.642;9.142;2023-05-10T02:05:39;96440.22;;;24.45;41.00
80124;BME280;69433;48.642;9.142;2023-05-10T02:08:07;96440.97;;;24.46;41.00
80124;BME280;69433;48.642;9.142;2023-05-10T02:10:34;96434.84;;;24.45;40.88
80124;BME280;69433;48.642;9.142;2023-05-10T02:13:00;96440.97;;;24.46;40.96
80124;BME280;69433;48.642;9.142;2023-05-10T02:15:27;96442.50;;;24.47;40.79
80124;BME280;69433;48.642;9.142;2023-05-10T02:17:54;96446.34;;;24.46;40.97
80124;BME280;69433;48.642;9.142;2023-05-10T02:20:22;96449.38;;;24.48;41.00
80124;BME280;69433;48.642;9.142;2023-05-10T02:22:52;96452.81;;;24.48;40.78
80124;BME280;69433;48.642;9.142;2023-05-10T02:25:19;96452.06;;;24.48;41.06
80124;BME280;69433;48.642;9.142;2023-05-10T02:27:47;96458.19;;;24.48;40.85
80124;BME280;69433;48.642;9.142;2023-05-10T02:30:13;96455.50;;;24.48;40.89
80124;BME280;69433;48.642;9.142;2023-05-10T02:32:40;96458.19;;;24.48;41.04
80124;BME280;69433;48.642;9.142;2023-05-10T02:35:07;96456.25;;;24.49;40.91
80124;BME280;69433;48.642;9.142;2023-05-10T02:37:34;96452.81;;;24.48;40.55
80124;BME280;69433;48.642;9.142;2023-05-10T02:40:01;96460.13;;;24.48;40.94
80124;BME280;69433;48.642;9.142;2023-05-10T02:42:29;96458.53;;;24.50;40.57
80124;BME280;69433;48.642;9.142;2023-05-10T02:45:00;96463.03;;;24.53;40.52
80124;BME280;69433;48.642;9.142;2023-05-10T02:47:26;96463.78;;;24.54;40.54
80124;BME280;69433;48.642;9.142;2023-05-10T02:49:52;96461.41;;;24.56;40.37
80124;BME280;69433;48.642;9.142;2023-05-10T02:52:21;96462.50;;;24.58;40.46
80124;BME280;69433;48.642;9.142;2023-05-10T02:54:50;96463.25;;;24.59;40.80
80124;BME280;69433;48.642;9.142;2023-05-10T02:57:26;96468.22;;;24.60;40.89
80124;BME280;69433;48.642;9.142;2023-05-10T02:59:52;96467.75;;;24.62;40.59
80124;BME280;69433;48.642;9.142;2023-05-10T03:02:18;96462.38;;;24.62;40.38
80124;BME280;69433;48.642;9.142;2023-05-10T03:04:43;96461.19;;;24.63;40.57
80124;BME280;69433;48.642;9.142;2023-05-10T03:07:09;96465.06;;;24.62;40.68
80124;BME280;69433;48.642;9.142;2023-05-10T03:09:34;96469.25;;;24.63;40.64
80124;BME280;69433;48.642;9.142;2023-05-10T03:12:36;96471.94;;;24.63;40.28
80124;BME280;69433;48.642;9.142;2023-05-10T03:18:10;96469.38;;;24.59;40.54
80124;BME280;69433;48.642;9.142;2023-05-10T03:20:42;96473.78;;;24.53;40.66
80124;BME280;69433;48.642;9.142;2023-05-10T03:23:22;96468.06;;;24.51;40.60
80124;BME280;69433;48.642;9.142;2023-05-10T03:25:53;96471.97;;;24.50;40.86
80124;BME280;69433;48.642;9.142;2023-05-10T03:28:21;96467.00;;;24.49;40.86
80124;BME280;69433;48.642;9.142;2023-05-10T03:30:46;96473.56;;;24.48;40.54
80124;BME280;69433;48.642;9.142;2023-05-10T03:33:12;96473.56;;;24.48;40.73
80124;BME280;69433;48.642;9.142;2023-05-10T03:35:41;96477.34;;;24.50;40.40
80124;BME280;69433;48.642;9.142;2023-05-10T03:38:09;96476.03;;;24.55;40.61
80124;BME280;69433;48.642;9.142;2023-05-10T03:40:34;96473.69;;;24.57;40.75
80124;BME280;69433;48.642;9.142;2023-05-10T03:42:59;96486.69;;;24.58;40.84
80124;BME280;69433;48.642;9.142;2023-05-10T03:45:25;96487.44;;;24.59;40.58
80124;BME280;69433;48.642;9.142;2023-05-10T03:47:50;96494.63;;;24.62;40.45
80124;BME280;69433;48.642;9.142;2023-05-10T03:50:17;96492.69;;;24.62;40.52
80124;BME280;69433;48.642;9.142;2023-05-10T03:52:43;96493.47;;;24.63;40.61
80124;BME280;69433;48.642;9.142;2023-05-10T03:55:09;96492.28;;;24.64;40.59
80124;BME280;69433;48.642;9.142;2023-05-10T03:57:36;96501.44;;;24.66;40.78
80124;BME280;69433;48.642;9.142;2023-05-10T04:00:02;96502.59;;;24.65;40.73
80124;BME280;69433;48.642;9.142;2023-05-10T04:02:27;96509.50;;;24.66;40.56
80124;BME280;69433;48.642;9.142;2023-05-10T04:04:56;96497.97;;;24.66;40.54
80124;BME280;69433;48.642;9.142;2023-05-10T04:07:21;96497.56;;;24.67;40.86
80124;BME280;69433;48.642;9.142;2023-05-10T04:09:47;96498.31;;;24.68;40.70
80124;BME280;69433;48.642;9.142;2023-05-10T04:12:18;96495.63;;;24.68;40.67
80124;BME280;69433;48.642;9.142;2023-05-10T04:14:44;96497.88;;;24.69;41.01
80124;BME280;69433;48.642;9.142;2023-05-10T04:17:09;96498.66;;;24.70;41.04
80124;BME280;69433;48.642;9.142;2023-05-10T04:19:35;96494.75;;;24.71;41.02
80124;BME280;69433;48.642;9.142;2023-05-10T04:22:02;96502.06;;;24.70;41.17
80124;BME280;69433;48.642;9.142;2023-05-10T04:24:27;96502.81;;;24.71;41.03
80124;BME280;69433;48.642;9.142;2023-05-10T04:26:54;96498.66;;;24.70;40.64
80124;BME280;69433;48.642;9.142;2023-05-10T04:29:19;96503.28;;;24.69;40.73
80124;BME280;69433;48.642;9.142;2023-05-10T04:31:44;96512.09;;;24.70;40.78
80124;BME280;69433;48.642;9.142;2023-05-10T04:34:10;96504.75;;;24.70;40.80
80124;BME280;69433;48.642;9.142;2023-05-10T04:36:35;96502.50;;;24.69;40.99
80124;BME280;69433;48.642;9.142;2023-05-10T04:39:02;96505.19;;;24.69;40.83
80124;BME280;69433;48.642;9.142;2023-05-10T04:41:28;96505.63;;;24.67;40.84
80124;BME280;69433;48.642;9.142;2023-05-10T04:43:53;96498.75;;;24.66;41.08
80124;BME280;69433;48.642;9.142;2023-05-10T04:46:19;96509.91;;;24.65;41.14
80124;BME280;69433;48.642;9.142;2023-05-10T04:48:47;96512.59;;;24.65;41.05
80124;BME280;69433;48.642;9.142;2023-05-10T04:51:12;96514.19;;;24.62;41.05
80124;BME280;69433;48.642;9.142;2023-05-10T04:53:37;96517.22;;;24.64;41.21
80124;BME280;69433;48.642;9.142;2023-05-10T04:56:03;96514.97;;;24.63;41.00
80124;BME280;69433;48.642;9.142;2023-05-10T04:58:28;96515.72;;;24.63;40.75
80124;BME280;69433;48.642;9.142;2023-05-10T05:00:53;96510.34;;;24.63;41.06
80124;BME280;69433;48.642;9.142;2023-05-10T05:03:18;96516.47;;;24.64;41.06
80124;BME280;69433;48.642;9.142;2023-05-10T05:05:44;96524.53;;;24.64;41.02
80124;BME280;69433;48.642;9.142;2023-05-10T05:08:12;96526.03;;;24.65;41.01
80124;BME280;69433;48.642;9.142;2023-05-10T05:10:37;96519.50;;;24.66;40.87
80124;BME280;69433;48.642;9.142;2023-05-10T05:13:03;96521.75;;;24.67;40.76
80124;BME280;69433;48.642;9.142;2023-05-10T05:15:28;96530.56;;;24.68;41.12
80124;BME280;69433;48.642;9.142;2023-05-10T05:17:53;96527.88;;;24.68;41.12
80124;BME280;69433;48.642;9.142;2023-05-10T05:20:19;96530.16;;;24.69;41.10
80124;BME280;69433;48.642;9.142;2023-05-10T05:22:44;96528.53;;;24.72;40.75
80124;BME280;69433;48.642;9.142;2023-05-10T05:25:09;96528.63;;;24.68;40.81
80124;BME280;69433;48.642;9.142;2023-05-10T05:27:35;96535.53;;;24.69;41.09
80124;BME280;69433;48.642;9.142;2023-05-10T05:30:00;96526.25;;;24.70;40.76
80124;BME280;69433;48.642;9.142;2023-05-10T05:32:27;96530.91;;;24.70;41.05
80124;BME280;69433;48.642;9.142;2023-05-10T05:34:52;96534.78;;;24.69;41.02
80124;BME280;69433;48.642;9.142;2023-05-10T05:37:19;96540.03;;;24.72;40.94
80124;BME280;69433;48.642;9.142;2023-05-10T05:39:45;96542.72;;;24.72;40.77
80124;BME280;69433;48.642;9.142;2023-05-10T05:42:14;96543.47;;;24.73;40.68
80124;BME280;69433;48.642;9.142;2023-05-10T05:44:41;96540.78;;;24.73;40.76
80124;BME280;69433;48.642;9.142;2023-05-10T05:47:06;96540.44;;;24.71;40.68
80124;BME280;69433;48.642;9.142;2023-05-10T05:49:32;96550.03;;;24.72;41.04
80124;BME280;69433;48.642;9.142;2023-05-10T05:52:02;96543.47;;;24.73;40.93
80124;BME280;69433;48.642;9.142;2023-05-10T05:54:28;96541.53;;;24.73;40.72
80124;BME280;69433;48.642;9.142;2023-05-10T05:57:00;96546.16;;;24.73;40.96
80124;BME280;69433;48.642;9.142;2023-05-10T05:59:25;96548.50;;;24.71;40.83
80124;BME280;69433;48.642;9.142;2023-05-10T06:01:50;96551.53;;;24.73;40.67
80124;BME280;69433;48.642;9.142;2023-05-10T06:04:16;96550.34;;;24.74;40.99
80124;BME280;69433;48.642;9.142;2023-05-10T06:06:42;96553.81;;;24.74;40.64
80124;BME280;69433;48.642;9.142;2023-05-10T06:09:13;96549.19;;;24.75;40.88
80124;BME280;69433;48.642;9.142;2023-05-10T06:11:39;96553.38;;;24.76;40.54
80124;BME280;69433;48.642;9.142;2023-05-10T06:14:05;96552.19;;;24.77;40.98
80124;BME280;69433;48.642;9.142;2023-05-10T06:16:32;96565.22;;;24.78;40.70
80124;BME280;69433;48.642;9.142;2023-05-10T06:18:58;96568.31;;;24.77;40.86
80124;BME280;69433;48.642;9.142;2023-05-10T06:21:23;96573.28;;;24.78;40.84
80124;BME280;69433;48.642;9.142;2023-05-10T06:23:48;96563.72;;;24.77;40.49
80124;BME280;69433;48.642;9.142;2023-05-10T06:26:14;96565.97;;;24.79;40.76
80124;BME280;69433;48.642;9.142;2023-05-10T06:28:39;96575.97;;;24.78;40.39
80124;BME280;69433;48.642;9.142;2023-05-10T06:31:05;96575.97;;;24.78;40.67
80124;BME280;69433;48.642;9.142;2023-05-10T06:33:33;96584.34;;;24.81;40.84
80124;BME280;69433;48.642;9.142;2023-05-10T06:35:58;96582.84;;;24.80;40.62
80124;BME280;69433;48.642;9.142;2023-05-10T06:38:24;96585.53;;;24.80;40.58
80124;BME280;69433;48.642;9.142;2023-05-10T06:40:49;96590.16;;;24.79;40.75
80124;BME280;69433;48.642;9.142;2023-05-10T06:43:22;96590.94;;;24.80;40.54
80124;BME280;69433;48.642;9.142;2023-05-10T06:45:50;96587.78;;;24.81;40.83
80124;BME280;69433;48.642;9.142;2023-05-10T06:48:15;96587.03;;;24.81;40.75
80124;BME280;69433;48.642;9.142;2023-05-10T06:50:40;96592.75;;;24.83;40.76
80124;BME280;69433;48.642;9.142;2023-05-10T06:53:06;96590.38;;;24.85;40.77
80124;BME280;69433;48.642;9.142;2023-05-10T06:55:31;96594.25;;;24.84;40.48
80124;BME280;69433;48.642;9.142;2023-05-10T06:57:56;96593.41;;;24.87;40.34
80124;BME280;69433;48.642;9.142;2023-05-10T07:00:22;96592.66;;;24.86;40.34
80124;BME280;69433;48.642;9.142;2023-05-10T07:02:47;96591.47;;;24.87;40.55
80124;BME280;69433;48.642;9.142;2023-05-10T07:05:13;96593.28;;;24.90;40.59
80124;BME280;69433;48.642;9.142;2023-05-10T07:07:45;96591.34;;;24.91;40.22
80124;BME280;69433;48.642;9.142;2023-05-10T07:10:10;96595.59;;;24.92;40.52
80124;BME280;69433;48.642;9.142;2023-05-10T07:12:36;96591.34;;;24.91;40.50
80124;BME280;69433;48.642;9.142;2023-05-10T07:15:01;96594.81;;;24.91;40.59
80124;BME280;69433;48.642;9.142;2023-05-10T07:17:26;96588.28;;;24.92;40.20
80124;BME280;69433;48.642;9.142;2023-05-10T07:19:52;96591.34;;;24.91;40.52
80124;BME280;69433;48.642;9.142;2023-05-10T07:22:17;96593.28;;;24.90;40.22
80124;BME280;69433;48.642;9.142;2023-05-10T07:24:44;96597.19;;;24.89;40.25
80124;BME280;69433;48.642;9.142;2023-05-10T07:27:09;96600.19;;;24.91;40.21
80124;BME280;69433;48.642;9.142;2023-05-10T07:29:35;96593.28;;;24.90;40.12
80124;BME280;69433;48.642;9.142;2023-05-10T07:32:00;96595.66;;;24.88;40.46
80124;BME280;69433;48.642;9.142;2023-05-10T07:34:26;96598.38;;;24.88;40.26
80124;BME280;69433;48.642;9.142;2023-05-10T07:36:52;96602.56;;;24.89;40.45
80124;BME280;69433;48.642;9.142;2023-05-10T07:39:17;96595.66;;;24.88;40.44
80124;BME280;69433;48.642;9.142;2023-05-10T07:41:42;96605.25;;;24.89;40.46
80124;BME280;69433;48.642;9.142;2023-05-10T07:44:08;96605.66;;;24.88;40.60
80124;BME280;69433;48.642;9.142;2023-05-10T07:46:33;96614.81;;;24.90;40.53
80124;BME280;69433;48.642;9.142;2023-05-10T07:48:59;96605.25;;;24.89;40.49
80124;BME280;69433;48.642;9.142;2023-05-10T07:51:24;96599.88;;;24.89;40.59
80124;BME280;69433;48.642;9.142;2023-05-10T07:53:49;96605.97;;;24.90;40.30
80124;BME280;69433;48.642;9.142;2023-05-10T07:56:29;96607.50;;;24.91;40.38
80124;BME280;69433;48.642;9.142;2023-05-10T07:58:55;96608.25;;;24.91;40.15
80124;BME280;69433;48.642;9.142;2023-05-10T08:01:21;96607.09;;;24.92;40.57
80124;BME280;69433;48.642;9.142;2023-05-10T08:03:46;96607.09;;;24.92;40.21
80124;BME280;69433;48.642;9.142;2023-05-10T08:06:12;96610.13;;;24.94;40.08
80124;BME280;69433;48.642;9.142;2023-05-10T08:08:38;96608.19;;;24.95;40.39
80124;BME280;69433;48.642;9.142;2023-05-10T08:11:04;96615.06;;;24.96;40.23
80124;BME280;69433;48.642;9.142;2023-05-10T08:13:29;96618.50;;;24.96;40.11
80124;BME280;69433;48.642;9.142;2023-05-10T08:15:54;96613.91;;;24.97;40.26
80124;BME280;69433;48.642;9.142;2023-05-10T08:18:20;96613.78;;;25.00;40.40
80124;BME280;69433;48.642;9.142;2023-05-10T08:20:45;96612.25;;;24.99;40.10
80124;BME280;69433;48.642;9.142;2023-05-10T08:23:12;96619.16;;;25.00;40.45
80124;BME280;69433;48.642;9.142;2023-05-10T08:25:38;96612.59;;;25.01;40.31
80124;BME280;69433;48.642;9.142;2023-05-10T08:28:04;96621.41;;;25.02;40.04
80124;BME280;69433;48.642;9.142;2023-05-10T08:30:29;96618.31;;;25.03;40.25
80124;BME280;69433;48.642;9.142;2023-05-10T08:32:55;96625.94;;;25.05;39.87
80124;BME280;69433;48.642;9.142;2023-05-10T08:35:20;96624.78;;;25.06;40.17
80124;BME280;69433;48.642;9.142;2023-05-10T08:37:52;96618.97;;;25.07;40.25
80124;BME280;69433;48.642;9.142;2023-05-10T08:40:19;96622.41;;;25.08;39.79
80124;BME280;69433;48.642;9.142;2023-05-10T08:42:51;96624.34;;;25.07;39.87
80124;BME280;69433;48.642;9.142;2023-05-10T08:45:19;96625.84;;;25.08;40.28
80124;BME280;69433;48.642;9.142;2023-05-10T08:47:45;96631.25;;;25.08;40.05
80124;BME280;69433;48.642;9.142;2023-05-10T08:50:11;96628.97;;;25.07;40.29
80124;BME280;69433;48.642;9.142;2023-05-10T08:52:38;96636.63;;;25.08;39.92
80124;BME280;69433;48.642;9.142;2023-05-10T08:55:05;96637.34;;;25.09;39.79
80124;BME280;69433;48.642;9.142;2023-05-10T08:57:30;96636.28;;;25.06;40.10
80124;BME280;69433;48.642;9.142;2023-05-10T08:59:55;96637.47;;;25.05;40.36
80124;BME280;69433;48.642;9.142;2023-05-10T09:02:22;96645.13;;;25.07;40.17
80124;BME280;69433;48.642;9.142;2023-05-10T09:04:48;96641.25;;;25.08;40.14
80124;BME280;69433;48.642;9.142;2023-05-10T09:07:14;96642.72;;;25.09;39.85
80124;BME280;69433;48.642;9.142;2023-05-10T09:09:39;96645.41;;;25.09;40.20
80124;BME280;69433;48.642;9.142;2023-05-10T09:12:05;96648.44;;;25.11;40.08
80124;BME280;69433;48.642;9.142;2023-05-10T09:14:33;96645.00;;;25.10;40.22
80124;BME280;69433;48.642;9.142;2023-05-10T09:17:00;96649.19;;;25.11;40.14
80124;BME280;69433;48.642;9.142;2023-05-10T09:19:25;96648.00;;;25.12;40.13
80124;BME280;69433;48.642;9.142;2023-05-10T09:21:51;96652.22;;;25.13;39.72
80124;BME280;69433;48.642;9.142;2023-05-10T09:24:16;96656.41;;;25.14;39.95
80124;BME280;69433;48.642;9.142;2023-05-10T09:26:48;96650.63;;;25.16;40.08
80124;BME280;69433;48.642;9.142;2023-05-10T09:29:14;96644.47;;;25.16;40.00
80124;BME280;69433;48.642;9.142;2023-05-10T09:31:47;96646.00;;;25.17;39.73
80124;BME280;69433;48.642;9.142;2023-05-10T09:34:29;96650.19;;;25.18;39.82
80124;BME280;69433;48.642;9.142;2023-05-10T09:36:59;96647.94;;;25.16;39.74
80124;BME280;69433;48.642;9.142;2023-05-10T09:39:35;96654.16;;;25.13;40.11
80124;BME280;69433;48.642;9.142;2023-05-10T09:42:09;96651.13;;;25.11;39.94
80124;BME280;69433;48.642;9.142;2023-05-10T09:44:34;96647.38;;;25.08;40.19
80124;BME280;69433;48.642;9.142;2023-05-10T09:47:01;96651.88;;;25.11;40.12
80124;BME280;69433;48.642;9.142;2023-05-10T09:49:26;96653.41;;;25.12;40.11
80124;BME280;69433;48.642;9.142;2023-05-10T09:52:09;96658.78;;;25.12;39.97
80124;BME280;69433;48.642;9.142;2023-05-10T09:54:35;96665.25;;;25.15;39.98
80124;BME280;69433;48.642;9.142;2023-05-10T09:57:05;96662.44;;;25.19;39.89
80124;BME280;69433;48.642;9.142;2023-05-10T09:59:32;96658.56;;;25.20;39.93
80124;BME280;69433;48.642;9.142;2023-05-10T10:01:59;96654.69;;;25.21;39.70
80124;BME280;69433;48.642;9.142;2023-05-10T10:04:25;96653.50;;;25.22;39.96
80124;BME280;69433;48.642;9.142;2023-05-10T10:07:04;96656.22;;;25.22;39.61
80124;BME280;69433;48.642;9.142;2023-05-10T10:09:30;96653.19;;;25.20;39.64
80124;BME280;69433;48.642;9.142;2023-05-10T10:11:56;96662.75;;;25.21;40.01
80124;BME280;69433;48.642;9.142;2023-05-10T10:14:23;96651.59;;;25.22;39.78
80124;BME280;69433;48.642;9.142;2023-05-10T10:16:52;96654.19;;;25.26;39.76
80124;BME280;69433;48.642;9.142;2023-05-10T10:19:21;96651.06;;;25.27;39.43
80124;BME280;69433;48.642;9.142;2023-05-10T10:21:50;96656.31;;;25.31;39.72
80124;BME280;69433;48.642;9.142;2023-05-10T10:24:16;96653.63;;;25.31;39.70
80124;BME280;69433;48.642;9.142;2023-05-10T10:26:42;96655.47;;;25.34;39.45
80124;BME280;69433;48.642;9.142;2023-05-10T10:29:16;96651.94;;;25.37;39.73
80124;BME280;69433;48.642;9.142;2023-05-10T10:34:46;96648.16;;;25.34;39.61
80124;BME280;69433;48.642;9.142;2023-05-10T10:37:12;96647.72;;;25.36;39.49
80124;BME280;69433;48.642;9.142;2023-05-10T10:39:37;96648.91;;;25.35;39.74
80124;BME280;69433;48.642;9.142;2023-05-10T10:42:03;96643.53;;;25.35;39.47
80124;BME280;69433;48.642;9.142;2023-05-10T10:44:36;96646.97;;;25.35;39.70
80124;BME280;69433;48.642;9.142;2023-05-10T10:49:43;96639.00;;;25.32;39.41
80124;BME280;69433;48.642;9.142;2023-05-10T10:52:32;96647.06;;;25.32;39.38
80124;BME280;69433;48.642;9.142;2023-05-10T10:55:13;96650.94;;;25.31;39.47
80124;BME280;69433;48.642;9.142;2023-05-10T10:57:47;96653.31;;;25.29;39.85
80124;BME280;69433;48.642;9.142;2023-05-10T11:00:27;96663.44;;;25.25;39.91
80124;BME280;69433;48.642;9.142;2023-05-10T11:03:08;96675.03;;;25.22;39.54
80124;BME280;69433;48.642;9.142;2023-05-10T11:10:50;96687.41;;;25.19;39.66
80124;BME280;69433;48.642;9.142;2023-05-10T11:13:27;96697.41;;;25.19;39.83
80124;BME280;69433;48.642;9.142;2023-05-10T11:15:53;96697.41;;;25.19;40.03
80124;BME280;69433;48.642;9.142;2023-05-10T11:18:23;96690.53;;;25.18;39.65
80124;BME280;69433;48.642;9.142;2023-05-10T11:20:55;96692.91;;;25.16;39.70
80124;BME280;69433;48.642;9.142;2023-05-10T11:23:21;96697.84;;;25.17;40.03
80124;BME280;69433;48.642;9.142;2023-05-10T11:25:47;96697.09;;;25.17;39.66
80124;BME280;69433;48.642;9.142;2023-05-10T11:28:13;96696.34;;;25.16;39.70
80124;BME280;69433;48.642;9.142;2023-05-10T11:30:39;96684.41;;;25.17;39.56
80124;BME280;69433;48.642;9.142;2023-05-10T11:33:06;96696.34;;;25.16;39.74
80124;BME280;69433;48.642;9.142;2023-05-10T11:35:37;96696.34;;;25.16;39.91
80124;BME280;69433;48.642;9.142;2023-05-10T11:38:05;96694.00;;;25.18;39.59
80124;BME280;69433;48.642;9.142;2023-05-10T11:40:30;96697.41;;;25.19;39.92
80124;BME280;69433;48.642;9.142;2023-05-10T11:42:56;96705.81;;;25.21;39.68
80124;BME280;69433;48.642;9.142;2023-05-10T11:45:23;96698.50;;;25.21;39.91
80124;BME280;69433;48.642;9.142;2023-05-10T11:47:49;96700.44;;;25.21;39.79
80124;BME280;69433;48.642;9.142;2023-05-10T11:50:15;96701.19;;;25.21;39.59
80124;BME280;69433;48.642;9.142;2023-05-10T11:52:40;96709.59;;;25.23;39.51
80124;BME280;69433;48.642;9.142;2023-05-10T11:55:06;96715.72;;;25.24;39.70
80124;BME280;69433;48.642;9.142;2023-05-10T11:57:31;96718.41;;;25.24;39.38
80124;BME280;69433;48.642;9.142;2023-05-10T11:59:57;96711.88;;;25.25;39.84
80124;BME280;69433;48.642;9.142;2023-05-10T12:02:22;96713.38;;;25.26;39.59
80124;BME280;69433;48.642;9.142;2023-05-10T12:04:48;96714.44;;;25.28;39.30
80124;BME280;69433;48.642;9.142;2023-05-10T12:07:14;96709.81;;;25.29;39.66
80124;BME280;69433;48.642;9.142;2023-05-10T12:10:08;96711.00;;;25.28;39.32
80124;BME280;69433;48.642;9.142;2023-05-10T12:12:37;96712.19;;;25.27;39.42
80124;BME280;69433;48.642;9.142;2023-05-10T12:15:03;96713.78;;;25.24;39.50
80124;BME280;69433;48.642;9.142;2023-05-10T12:17:29;96710.34;;;25.24;39.88
80124;BME280;69433;48.642;9.142;2023-05-10T12:19:59;96714.56;;;25.25;39.83
80124;BME280;69433;48.642;9.142;2023-05-10T12:22:24;96713.03;;;25.24;39.42
80124;BME280;69433;48.642;9.142;2023-05-10T12:24:50;96712.69;;;25.22;39.50
80124;BME280;69433;48.642;9.142;2023-05-10T12:27:15;96718.09;;;25.22;39.53
80124;BME280;69433;48.642;9.142;2023-05-10T12:29:41;96715.41;;;25.22;39.93
80124;BME280;69433;48.642;9.142;2023-05-10T12:32:09;96716.56;;;25.21;39.66
80124;BME280;69433;48.642;9.142;2023-05-10T12:34:35;96720.03;;;25.21;39.64
80124;BME280;69433;48.642;9.142;2023-05-10T12:37:02;96711.19;;;25.21;39.80
80124;BME280;69433;48.642;9.142;2023-05-10T12:39:41;96716.91;;;25.23;39.51
80124;BME280;69433;48.642;9.142;2023-05-10T12:42:07;96715.41;;;25.22;39.63
80124;BME280;69433;48.642;9.142;2023-05-10T12:44:32;96720.78;;;25.22;39.57
80124;BME280;69433;48.642;9.142;2023-05-10T12:46:58;96721.88;;;25.24;39.50
80124;BME280;69433;48.642;9.142;2023-05-10T12:49:23;96715.31;;;25.25;39.66
80124;BME280;69433;48.642;9.142;2023-05-10T12:51:48;96716.50;;;25.24;39.48
80124;BME280;69433;48.642;9.142;2023-05-10T12:54:13;96714.56;;;25.25;39.86
80124;BME280;69433;48.642;9.142;2023-05-10T12:56:39;96718.75;;;25.26;39.75
80124;BME280;69433;48.642;9.142;2023-05-10T12:59:05;96719.09;;;25.28;39.33
80124;BME280;69433;48.642;9.142;2023-05-10T13:01:31;96711.75;;;25.28;39.72
80124;BME280;69433;48.642;9.142;2023-05-10T13:03:56;96719.41;;;25.30;39.54
80124;BME280;69433;48.642;9.142;2023-05-10T13:06:22;96710.56;;;25.29;39.71
80124;BME280;69433;48.642;9.142;2023-05-10T13:08:47;96711.75;;;25.28;39.49
80124;BME280;69433;48.642;9.142;2023-05-10T13:11:12;96717.47;;;25.30;39.80
80124;BME280;69433;48.642;9.142;2023-05-10T13:13:41;96705.94;;;25.30;39.70
80124;BME280;69433;48.642;9.142;2023-05-10T13:16:06;96707.88;;;25.29;39.49
80124;BME280;69433;48.642;9.142;2023-05-10T13:18:32;96711.66;;;25.32;39.71
80124;BME280;69433;48.642;9.142;2023-05-10T13:20:57;96718.53;;;25.33;39.67
80124;BME280;69433;48.642;9.142;2023-05-10T13:23:22;96711.66;;;25.32;39.33
80124;BME280;69433;48.642;9.142;2023-05-10T13:25:47;96711.22;;;25.33;39.51